Detall de PIREP

Printer-friendly versionPDF version

[2013/03/26 11:18:00]
Flight IATA:CT1004
Pilot Number:042
Company ICAO:CAT
Aircraft Type:A320/E
PAX:67
Departing Airport: LEBL
Destination Airport: LEVT
Alternate Airport:LEMD
Online: VATSIM
Route:LOBAR UN725 DGO
Flight Level:F290
No Slew and time accel
No pause
Crash detect
Detect pilot in Cockpit between each 30 and 45 minutes
11:18 Zero fuel Weight: 143852 Lbs, Fuel Weight: 42160 Lbs
11:18 VATSIM:LEBL 261100Z 14007KT 9999 FEW025 BKN054 16/08 Q1004 NOSIG
11:18 VATSIM:LEVT 261100Z 00000KT 9999 SCT040 BKN065 13/08 Q1004
11:19 VOICE CATALONIAN/EASTER CHARTER
11:34 Parking Brakes off
11:46 Take-off
11:46 Take off Weight: 184303 Lbs
11:46 Wind: 212º @ 004 Knots Heading: 067º
11:46 POS N41º 17´ 42´´ E002º 06´ 48´´
11:46 Flaps:3 at 187 Knots
11:46 Gear Up: 188 Knots
11:47 Gear Down: 265 Knots
11:47 Flaps:0 at 267 Knots
11:48 Gear Up: 249 Knots
12:01 Wind:311º@051 Knots Heading: 277º Ground Speed: 401 Knots Altitude 24599 ft
12:05 TOC
12:05 Fuel Weight: 35358 Lb
12:05 TOD
12:05 Fuel Weight: 35352 Lb
12:05 TOC
12:05 Fuel Weight: 35342 Lb
12:05 TOD
12:05 Fuel Weight: 35295 Lb
12:05 TOC
12:05 Fuel Weight: 35287 Lb
12:06 TOD
12:06 Fuel Weight: 35249 Lb
12:06 TOC
12:06 Fuel Weight: 35245 Lb
12:06 TOD
12:06 Fuel Weight: 35171 Lb
12:06 TOC
12:06 Fuel Weight: 35164 Lb
12:07 TOD
12:07 Fuel Weight: 35045 Lb
12:07 TOC
12:07 Fuel Weight: 35041 Lb
12:08 TOD
12:08 Fuel Weight: 34925 Lb
12:08 TOC
12:08 Fuel Weight: 34921 Lb
12:11 TOD
12:11 Fuel Weight: 34673 Lb
12:11 TOC
12:11 Fuel Weight: 34668 Lb
12:11 TOD
12:11 Fuel Weight: 34562 Lb
12:11 TOC
12:11 Fuel Weight: 34556 Lb
12:12 TOD
12:12 Fuel Weight: 34437 Lb
12:13 TOC
12:13 Fuel Weight: 34428 Lb
12:14 TOD
12:14 Fuel Weight: 34314 Lb
12:14 TOC
12:14 Fuel Weight: 34310 Lb
12:15 TOD
12:15 Fuel Weight: 34185 Lb
12:15 TOC
12:15 Fuel Weight: 34182 Lb
12:16 Wind:308º@049 Knots Heading: 288º Ground Speed: 409 Knots Altitude 28720 ft
12:16 TOD
12:16 Fuel Weight: 34064 Lb
12:16 TOC
12:16 Fuel Weight: 34055 Lb
12:20 TOD
12:20 Fuel Weight: 33529 Lb
12:31 Wind:305º@009 Knots Heading: 327º Ground Speed: 255 Knots Altitude 9812 ft
12:35 Flaps:1 at 199 Knots
12:36 Flaps:3 at 200 Knots
12:38 Gear Down: 180 Knots
12:38 Flaps:4 at 180 Knots
12:38 Flaps:5 at 165 Knots
12:40 TouchDown:Rate -319 ft/min Speed: 144 Knots
12:40 VATSIM:LEVT 261230Z 00000KT 9999 FEW025 SCT040 BKN060 13/08 Q1003
12:40 Land
12:40 Wind:234º@005 Knots
12:40 Heading: 036º
12:40 Flight Duration: 00:54
12:40 Landing Weight: 175897 Lbs
12:40 POS N42º 52´ 57´´ W002º 43´ 28´´
12:47 Parking brakes on
12:47 Block to Block Duration: 01:13
12:47 Final Fuel: 31265 Lbls
12:47 Spent Fuel: 10895 Lbls
12:47 Flight Length: 305 NM
12:47 TOD Land Length: 92 NM

Exportar CSV

Powered by Drupal - Modified by Danger4k